East Falmouth, Massachusetts
Current Conditions -  °F | °C
As of 2:15 PM on Tuesday 21 Oct 2014 (Local Time) from KFMH Reporting Station
Overcast Overcast  
Wind Chill: 63°   Ceiling: 2100
Heat Index: 63°   Visibility: 10mi
Dew Point: 55°   Wind: 13mph
Humidity: 77%   Direction: 140°SE
Pressure: 29.91"   Gusts: 20mph
Location:  41.58°N, 70.56°W
Report Text: KFMH 211815Z AUTO 14011G17KT 10SM SCT015 BKN021 OVC032 17/13 A2991 RMK AO2
Loading
Personal Weather Stations






























Interactive Weather Map
Tropical Storm Tracking
New forecast layout! Learn more

10-Day Weather Forecast

Advertisements
Track Severe Weather on mobile